createdAt,value
2019-03-12T00:01:53.723Z,4.42
2019-03-12T00:04:25.260Z,4.65
2019-03-12T00:06:57.944Z,4.25
2019-03-12T00:09:29.586Z,4.03
2019-03-12T00:12:01.167Z,2.62
2019-03-12T00:14:32.537Z,5.10
2019-03-12T00:17:04.174Z,5.87
2019-03-12T00:19:35.723Z,5.25
2019-03-12T00:22:07.175Z,4.75
2019-03-12T00:24:39.143Z,7.95
2019-03-12T00:27:10.727Z,5.83
2019-03-12T00:29:42.455Z,8.15
2019-03-12T00:32:14.110Z,6.92
2019-03-12T00:34:45.591Z,4.25
2019-03-12T00:37:17.345Z,9.18
2019-03-12T00:39:48.779Z,3.37
2019-03-12T00:42:20.437Z,2.72
2019-03-12T00:44:51.896Z,3.67
2019-03-12T00:47:23.472Z,4.60
2019-03-12T00:49:54.992Z,3.30
2019-03-12T00:52:27.681Z,3.05
2019-03-12T00:54:59.242Z,5.15
2019-03-12T00:57:30.798Z,5.47
2019-03-12T01:00:02.349Z,4.20
2019-03-12T01:02:35.547Z,3.20
2019-03-12T01:05:07.102Z,3.08
2019-03-12T01:07:38.396Z,5.40
2019-03-12T01:10:14.450Z,1.98
2019-03-12T01:12:45.668Z,5.03
2019-03-12T01:15:17.310Z,3.58
2019-03-12T01:17:48.820Z,3.58
2019-03-12T01:20:20.474Z,3.27
2019-03-12T01:22:52.061Z,3.45
2019-03-12T01:25:23.880Z,3.25
2019-03-12T01:27:55.193Z,3.92
2019-03-12T01:30:26.742Z,2.30
2019-03-12T01:32:58.302Z,4.03
2019-03-12T01:35:29.859Z,3.58
2019-03-12T01:38:01.414Z,2.15
2019-03-12T01:40:32.765Z,2.65
2019-03-12T01:43:04.316Z,3.42
2019-03-12T01:45:35.976Z,3.33
2019-03-12T01:48:07.524Z,3.27
2019-03-12T01:50:38.988Z,2.05
2019-03-12T01:53:10.537Z,2.90
2019-03-12T01:55:42.006Z,2.85
2019-03-12T01:58:14.744Z,2.20
2019-03-12T02:00:47.103Z,2.98
2019-03-12T02:03:18.590Z,1.75
2019-03-12T02:05:50.260Z,5.45
2019-03-12T02:08:21.806Z,3.33
2019-03-12T02:10:53.473Z,3.05
2019-03-12T02:13:25.137Z,6.40
2019-03-12T02:15:56.590Z,3.17
2019-03-12T02:18:28.135Z,2.50
2019-03-12T02:20:59.581Z,5.60
2019-03-12T02:23:31.159Z,3.40
2019-03-12T02:26:02.510Z,6.87
2019-03-12T02:28:34.044Z,4.33
2019-03-12T02:31:05.601Z,3.77
2019-03-12T02:33:37.166Z,2.52
2019-03-12T02:36:08.643Z,2.22
2019-03-12T02:38:40.194Z,2.30
2019-03-12T02:41:11.740Z,5.53
2019-03-12T02:43:43.296Z,2.92
2019-03-12T02:46:14.755Z,3.77
2019-03-12T02:48:46.283Z,2.27
2019-03-12T02:51:17.840Z,2.45
2019-03-12T02:53:49.411Z,2.05
2019-03-12T02:56:20.950Z,2.87
2019-03-12T02:58:52.617Z,4.28
2019-03-12T03:01:24.082Z,2.60
2019-03-12T03:03:55.846Z,3.22
2019-03-12T03:06:31.697Z,2.92
2019-03-12T03:09:04.056Z,4.22
2019-03-12T03:11:36.946Z,4.85
2019-03-12T03:14:11.569Z,6.37
2019-03-12T03:16:43.124Z,5.25
2019-03-12T03:19:14.592Z,4.50
2019-03-12T03:21:46.031Z,4.83
2019-03-12T03:24:17.589Z,10.30
2019-03-12T03:26:49.356Z,6.35
2019-03-12T03:29:20.832Z,3.75
2019-03-12T03:31:52.569Z,4.00
2019-03-12T03:34:27.785Z,3.42
2019-03-12T03:36:56.803Z,2.77
2019-03-12T03:39:28.457Z,4.62
2019-03-12T03:42:00.002Z,2.95
2019-03-12T03:44:31.563Z,5.22
2019-03-12T03:47:03.246Z,4.42
2019-03-12T03:49:34.679Z,8.78
2019-03-12T03:52:07.147Z,12.18
2019-03-12T03:54:38.916Z,10.70
2019-03-12T03:57:10.573Z,10.85
2019-03-12T03:59:42.332Z,10.43
2019-03-12T04:02:13.991Z,7.33
2019-03-12T04:04:45.543Z,5.97
2019-03-12T04:07:17.418Z,3.72
2019-03-12T04:09:48.813Z,4.35
2019-03-12T04:12:20.326Z,4.85
2019-03-12T04:14:51.978Z,3.92
2019-03-12T04:17:23.434Z,3.52
2019-03-12T04:19:54.779Z,3.30
2019-03-12T04:22:26.342Z,4.00
2019-03-12T04:24:57.698Z,4.72
2019-03-12T04:27:29.237Z,4.80
2019-03-12T04:30:00.802Z,5.60
2019-03-12T04:32:32.347Z,6.33
2019-03-12T04:35:04.216Z,3.87
2019-03-12T04:37:35.562Z,3.42
2019-03-12T04:40:13.669Z,2.55
2019-03-12T04:42:45.328Z,4.90
2019-03-12T04:45:17.085Z,4.53
2019-03-12T04:47:48.645Z,3.98
2019-03-12T04:50:19.995Z,2.95
2019-03-12T04:52:51.759Z,5.47
2019-03-12T04:55:23.204Z,5.22
2019-03-12T04:57:54.866Z,4.92
2019-03-12T05:00:26.219Z,3.45
2019-03-12T05:02:57.759Z,3.70
2019-03-12T05:05:29.427Z,3.72
2019-03-12T05:08:00.973Z,4.22
2019-03-12T05:10:32.526Z,2.60
2019-03-12T05:13:04.099Z,3.22
2019-03-12T05:15:35.547Z,3.35
2019-03-12T05:18:07.104Z,4.85
2019-03-12T05:20:38.663Z,6.17
2019-03-12T05:23:10.111Z,3.02
2019-03-12T05:25:41.582Z,6.12
2019-03-12T05:28:13.110Z,5.70
2019-03-12T05:30:44.594Z,4.03
2019-03-12T05:33:16.126Z,3.85
2019-03-12T05:35:47.681Z,9.38
2019-03-12T05:38:19.458Z,6.22
2019-03-12T06:18:49.693Z,14.83
2019-03-12T06:21:22.487Z,17.67
2019-03-12T06:23:54.051Z,16.30
2019-03-12T06:26:25.409Z,19.20
2019-03-12T06:28:56.847Z,17.07
2019-03-12T06:31:29.769Z,16.27
2019-03-12T06:34:02.676Z,18.98
2019-03-12T06:36:35.576Z,16.17
2019-03-12T06:39:09.540Z,16.40
2019-03-12T06:41:42.548Z,16.73
2019-03-12T06:44:21.804Z,21.55
2019-03-12T06:47:00.895Z,15.98
2019-03-12T06:49:33.841Z,13.22
2019-03-12T06:52:09.716Z,15.83
2019-03-12T06:54:45.531Z,13.83
2019-03-12T06:57:18.418Z,14.60
2019-03-12T07:00:06.795Z,11.65
2019-03-12T07:02:55.089Z,12.15
2019-03-12T07:05:30.916Z,12.10
2019-03-12T07:08:06.597Z,11.30
2019-03-12T07:10:51.505Z,12.00
2019-03-12T07:13:30.731Z,14.60
2019-03-12T07:16:06.541Z,11.50
2019-03-12T07:18:45.529Z,14.23
2019-03-12T07:21:33.537Z,13.75
2019-03-12T07:24:09.998Z,13.53
2019-03-12T07:26:44.112Z,12.47
2019-03-12T07:29:35.287Z,18.60
2019-03-12T07:32:24.749Z,19.80
2019-03-12T07:35:14.103Z,17.25
2019-03-12T07:37:56.017Z,15.80
2019-03-12T07:40:37.930Z,16.17
2019-03-12T07:43:25.926Z,15.90
2019-03-12T07:45:58.842Z,18.65
2019-03-12T07:48:34.752Z,11.30
2019-03-12T07:51:10.723Z,12.45
2019-03-12T07:53:59.976Z,14.83
2019-03-12T07:56:32.938Z,13.70
2019-03-12T07:59:17.881Z,8.00
2019-03-12T08:02:09.087Z,9.30
2019-03-12T08:04:58.148Z,6.58
2019-03-12T08:07:43.338Z,6.12
2019-03-12T08:10:16.200Z,5.80
2019-03-12T08:12:51.929Z,4.75
2019-03-12T08:15:25.741Z,8.35
2019-03-12T08:17:58.564Z,4.12
2019-03-12T08:20:40.673Z,3.55
2019-03-12T08:23:31.975Z,4.45
2019-03-12T08:26:07.699Z,7.12
2019-03-12T08:28:43.788Z,5.12
2019-03-12T08:31:16.611Z,5.83
2019-03-12T08:33:50.967Z,6.15
2019-03-12T08:36:30.065Z,3.58
2019-03-12T08:39:03.283Z,4.58
2019-03-12T08:41:49.415Z,4.00
2019-03-12T08:44:40.970Z,4.80
2019-03-12T08:47:14.708Z,3.42
2019-03-12T08:49:53.486Z,7.20
2019-03-12T08:52:35.174Z,4.53
2019-03-12T08:55:11.252Z,4.55
2019-03-12T08:57:44.060Z,8.18
2019-03-12T09:00:25.780Z,5.87
2019-03-12T09:02:58.605Z,5.45
2019-03-12T09:05:34.866Z,3.75
2019-03-12T09:08:23.893Z,7.28
2019-03-12T09:11:08.921Z,6.80
2019-03-12T09:13:48.886Z,4.08
2019-03-12T09:16:21.655Z,8.23
2019-03-12T09:19:06.591Z,6.65
2019-03-12T09:21:48.437Z,7.37
2019-03-12T09:24:30.659Z,6.78
2019-03-12T09:27:15.435Z,5.12
2019-03-12T09:29:51.297Z,7.70
2019-03-12T09:32:42.199Z,6.55
2019-03-12T09:35:24.041Z,5.97
2019-03-12T09:38:00.073Z,7.17
2019-03-12T09:40:32.924Z,5.97
2019-03-12T09:43:11.911Z,5.53
2019-03-12T09:45:50.707Z,5.35
2019-03-12T09:48:32.595Z,3.37
2019-03-12T09:51:11.327Z,4.12
2019-03-12T09:53:46.856Z,4.42
2019-03-12T09:56:36.167Z,2.58
2019-03-12T09:59:08.988Z,3.47
2019-03-12T10:01:41.761Z,2.83
2019-03-12T10:04:17.662Z,3.33
2019-03-12T10:07:07.347Z,6.12
2019-03-12T10:09:42.897Z,7.17
2019-03-12T10:12:15.800Z,4.55
2019-03-12T10:14:57.469Z,5.20
2019-03-12T10:17:36.456Z,4.35
2019-03-12T10:20:22.718Z,7.10
2019-03-12T10:23:01.382Z,3.60
2019-03-12T10:25:40.402Z,6.00
2019-03-12T10:28:16.166Z,5.35
2019-03-12T10:30:58.050Z,9.28
2019-03-12T10:33:30.876Z,6.80
2019-03-12T10:36:09.640Z,13.90
2019-03-12T10:39:18.945Z,5.60
2019-03-12T10:42:09.858Z,2.80
2019-03-12T10:44:45.545Z,4.60
2019-03-12T10:47:24.159Z,11.00
2019-03-12T10:49:55.501Z,11.00
2019-03-12T10:52:26.865Z,9.20
2019-03-12T10:55:11.748Z,8.83
2019-03-12T10:57:31.114Z,15.72
2019-03-12T11:00:04.848Z,20.72
2019-03-12T11:02:40.464Z,10.93
2019-03-12T11:05:10.459Z,8.90
2019-03-12T11:07:41.701Z,7.67
2019-03-12T11:10:15.091Z,6.05
2019-03-12T11:12:46.387Z,9.63
2019-03-12T11:15:17.615Z,7.05
2019-03-12T11:17:50.363Z,7.45
2019-03-12T11:20:26.854Z,15.78
2019-03-12T11:22:59.183Z,5.28
2019-03-12T11:25:30.394Z,7.75
2019-03-12T11:28:01.714Z,6.80
2019-03-12T11:30:32.963Z,2.95
2019-03-12T11:33:04.371Z,5.80
2019-03-12T11:35:39.176Z,5.83
2019-03-12T11:38:08.669Z,5.60
2019-03-12T11:40:39.886Z,3.62
2019-03-12T11:43:11.126Z,7.70
2019-03-12T11:45:42.386Z,7.92
2019-03-12T11:48:13.742Z,2.30
2019-03-12T11:50:45.033Z,7.03
2019-03-12T11:53:16.240Z,3.87
2019-03-12T11:55:47.471Z,4.85
2019-03-12T11:58:19.809Z,3.70
2019-03-12T12:00:59.228Z,4.45
2019-03-12T12:03:30.520Z,5.00
2019-03-12T12:06:01.799Z,4.83
2019-03-12T12:08:33.189Z,5.50
2019-03-12T12:11:12.506Z,8.55
2019-03-12T12:13:43.875Z,9.53
2019-03-12T12:16:15.123Z,4.50
2019-03-12T12:18:46.402Z,4.00
2019-03-12T12:21:17.593Z,6.45
2019-03-12T12:23:48.942Z,4.65
2019-03-12T12:26:20.167Z,4.47
2019-03-12T12:28:51.748Z,3.40
2019-03-12T12:31:23.128Z,5.05
2019-03-12T12:33:54.466Z,5.80
2019-03-12T12:36:25.746Z,4.70
2019-03-12T12:38:56.979Z,9.55
2019-03-12T12:41:28.348Z,3.77
2019-03-12T12:43:59.587Z,5.65
2019-03-12T12:46:30.935Z,4.97
2019-03-12T12:49:02.260Z,14.98
2019-03-12T12:51:33.722Z,25.60
2019-03-12T12:54:06.040Z,30.02
2019-03-12T12:56:37.373Z,12.35
2019-03-12T12:59:08.738Z,21.77
2019-03-12T13:01:40.112Z,14.40
2019-03-12T13:04:11.428Z,13.58
2019-03-12T13:06:42.785Z,13.03
2019-03-12T13:09:14.167Z,9.35
2019-03-12T13:11:45.395Z,4.08
2019-03-12T13:14:16.622Z,5.65
2019-03-12T13:16:47.941Z,6.10
2019-03-12T13:19:19.180Z,8.78
2019-03-12T13:21:50.541Z,11.90
2019-03-12T13:24:22.913Z,7.80
2019-03-12T13:26:54.133Z,13.28
2019-03-12T13:29:26.445Z,6.08
2019-03-12T13:31:57.828Z,5.92
2019-03-12T13:34:29.226Z,9.08
2019-03-12T13:37:00.506Z,17.45
2019-03-12T13:39:31.855Z,10.60
2019-03-12T13:42:03.191Z,7.15
2019-03-12T13:44:35.064Z,17.92
2019-03-12T13:47:06.413Z,16.82
2019-03-12T13:49:37.725Z,11.90
2019-03-12T13:52:09.098Z,6.53
2019-03-12T13:54:40.435Z,8.48
2019-03-12T13:57:11.802Z,13.43
2019-03-12T13:59:43.129Z,13.30
2019-03-12T14:02:14.435Z,8.95
2019-03-12T14:04:46.688Z,7.53
2019-03-12T14:07:17.900Z,5.62
2019-03-12T14:09:49.167Z,8.13
2019-03-12T14:12:20.378Z,10.45
2019-03-12T14:14:51.702Z,18.87
2019-03-12T14:17:23.017Z,19.60
2019-03-12T14:19:55.381Z,14.85
2019-03-12T14:22:26.765Z,14.60
2019-03-12T14:24:58.205Z,21.77
2019-03-12T14:27:29.579Z,13.98
2019-03-12T14:30:00.894Z,16.67
2019-03-12T14:32:33.722Z,14.25
2019-03-12T14:35:06.135Z,17.15
2019-03-12T14:37:37.483Z,28.90
2019-03-12T14:40:08.889Z,44.55
2019-03-12T14:42:40.244Z,37.00
2019-03-12T14:45:15.045Z,28.07
2019-03-12T14:47:46.416Z,32.28
2019-03-12T14:50:18.614Z,42.33
2019-03-12T14:53:21.740Z,41.13
2019-03-12T14:55:46.606Z,30.02
2019-03-12T14:58:17.974Z,26.60
2019-03-12T15:00:49.376Z,33.92
2019-03-12T15:03:20.715Z,31.50
2019-03-12T15:05:52.037Z,37.65
2019-03-12T15:08:23.378Z,43.10
2019-03-12T15:10:54.701Z,48.75
2019-03-12T15:13:26.056Z,40.25
2019-03-12T15:15:57.493Z,45.20
2019-03-12T15:18:28.933Z,41.77
2019-03-12T15:21:00.370Z,40.78
2019-03-12T15:23:31.861Z,40.75
2019-03-12T15:26:03.182Z,46.15
2019-03-12T15:28:34.538Z,55.55
2019-03-12T15:31:05.975Z,72.53
2019-03-12T15:33:37.354Z,78.75
2019-03-12T15:36:08.787Z,65.90
2019-03-12T15:38:40.974Z,70.65
2019-03-12T15:41:12.348Z,105.30
2019-03-12T15:43:43.771Z,129.68
2019-03-12T15:46:15.110Z,149.45
2019-03-12T15:48:46.572Z,64.35
2019-03-12T15:51:17.924Z,47.05
2019-03-12T15:53:49.379Z,52.70
2019-03-12T15:56:22.110Z,57.48
2019-03-12T15:58:53.435Z,71.45
2019-03-12T16:01:24.867Z,128.05
2019-03-12T16:03:56.212Z,165.30
2019-03-12T16:06:27.555Z,151.35
2019-03-12T16:08:59.036Z,216.40
2019-03-12T16:11:31.360Z,196.72
2019-03-12T16:14:03.000Z,168.78
2019-03-12T16:16:34.395Z,126.22
2019-03-12T16:19:05.844Z,118.20
2019-03-12T16:21:37.139Z,147.78
2019-03-12T16:24:08.509Z,197.43
2019-03-12T16:26:39.922Z,180.95
2019-03-12T16:29:11.319Z,343.60
2019-03-12T16:31:42.741Z,312.70
2019-03-12T16:34:14.122Z,280.83
2019-03-12T16:36:45.518Z,275.85
2019-03-12T16:39:16.969Z,294.93
2019-03-12T16:41:48.341Z,408.50
2019-03-12T16:44:19.732Z,433.42
2019-03-12T16:46:51.196Z,402.62
2019-03-12T16:49:22.559Z,344.48
2019-03-12T16:51:53.908Z,265.35
2019-03-12T16:54:25.314Z,262.63
2019-03-12T16:56:56.673Z,158.63
2019-03-12T16:59:28.029Z,168.30
2019-03-12T17:01:59.478Z,169.35
2019-03-12T17:04:30.944Z,175.35
2019-03-12T17:07:02.390Z,202.62
2019-03-12T17:09:33.821Z,191.30
2019-03-12T17:12:05.160Z,160.18
2019-03-12T17:14:39.039Z,125.50
2019-03-12T17:17:10.003Z,81.45
2019-03-12T17:19:41.368Z,90.53
2019-03-12T17:22:12.853Z,86.00
2019-03-12T17:24:44.352Z,183.97
2019-03-12T17:27:15.730Z,164.37
2019-03-12T17:29:47.187Z,107.40
2019-03-12T17:32:18.737Z,66.47
2019-03-12T17:34:50.118Z,58.60
2019-03-12T17:37:21.629Z,61.33
2019-03-12T17:39:53.171Z,62.67
2019-03-12T17:42:24.530Z,62.33
2019-03-12T17:44:56.005Z,65.90
2019-03-12T17:47:27.492Z,57.85
2019-03-12T17:49:58.932Z,48.58
2019-03-12T17:52:30.390Z,61.95
2019-03-12T17:55:01.822Z,52.53
2019-03-12T17:57:33.299Z,57.03
2019-03-12T18:00:08.690Z,52.53
2019-03-12T18:05:13.208Z,49.67
2019-03-12T18:07:45.567Z,47.85
2019-03-12T18:10:18.302Z,48.48
2019-03-12T18:12:49.689Z,56.05
2019-03-12T18:15:21.515Z,49.95
2019-03-12T18:17:52.961Z,49.53
2019-03-12T18:20:24.739Z,49.23
2019-03-12T18:22:56.278Z,53.73
2019-03-12T18:25:33.035Z,49.83
2019-03-12T18:28:04.639Z,54.05
2019-03-12T18:30:36.068Z,56.77
2019-03-12T18:33:07.413Z,57.65
2019-03-12T18:35:38.943Z,53.60
2019-03-12T18:38:10.510Z,84.03
2019-03-12T18:40:42.008Z,64.65
2019-03-12T18:43:15.031Z,76.17
2019-03-12T18:45:47.108Z,61.28
2019-03-12T18:48:18.658Z,53.78
2019-03-12T18:50:50.416Z,61.15
2019-03-12T18:53:22.065Z,59.53
2019-03-12T18:55:56.957Z,65.72
2019-03-12T18:58:28.579Z,52.98
2019-03-12T19:01:02.240Z,53.70
2019-03-12T19:03:33.701Z,48.13
2019-03-12T19:06:05.306Z,58.10
2019-03-12T19:08:37.355Z,47.45
2019-03-12T19:11:09.009Z,48.73
2019-03-12T19:13:40.523Z,52.17
2019-03-12T19:16:12.198Z,47.08
2019-03-12T19:18:43.841Z,45.92
2019-03-12T19:21:15.625Z,54.10
2019-03-12T19:23:47.309Z,50.43
2019-03-12T19:26:19.271Z,55.35
2019-03-12T19:28:51.062Z,48.48
2019-03-12T19:31:24.677Z,46.23
2019-03-12T19:36:31.296Z,49.67
2019-03-12T19:39:03.156Z,68.12
2019-03-12T19:41:36.746Z,59.18
2019-03-12T19:44:08.708Z,53.63
2019-03-12T19:46:40.436Z,63.20
2019-03-12T19:49:12.131Z,71.12
2019-03-12T19:51:43.808Z,59.42
2019-03-12T19:54:15.708Z,61.00
2019-03-12T19:56:47.618Z,64.55
2019-03-12T19:59:19.309Z,62.90
2019-03-12T20:01:51.719Z,61.53
2019-03-12T20:04:23.768Z,62.65
2019-03-12T20:06:55.610Z,70.42
2019-03-12T20:09:33.471Z,72.47
2019-03-12T20:12:20.186Z,67.22
2019-03-12T20:15:07.941Z,73.70
2019-03-12T20:17:49.223Z,63.80
2019-03-12T20:20:43.873Z,79.72
2019-03-12T20:23:18.893Z,72.42
2019-03-12T20:26:13.428Z,74.32
2019-03-12T20:29:06.074Z,80.00
2019-03-12T20:32:01.835Z,68.95
2019-03-12T20:34:54.444Z,57.60
2019-03-12T20:38:04.463Z,71.47
2019-03-12T20:41:05.392Z,79.27
2019-03-12T20:43:47.244Z,77.03
2019-03-12T20:46:33.796Z,80.60
2019-03-12T20:49:11.281Z,79.32
2019-03-12T20:52:03.008Z,86.55
2019-03-12T20:54:57.930Z,78.10
2019-03-12T20:57:57.957Z,76.00
2019-03-12T21:00:58.321Z,84.58
2019-03-12T21:04:05.927Z,72.20
2019-03-12T21:07:02.797Z,75.00
2019-03-12T21:09:59.864Z,71.47
2019-03-12T21:12:55.333Z,70.28
2019-03-12T21:15:38.852Z,72.90
2019-03-12T21:18:19.243Z,73.57
2019-03-12T21:21:09.943Z,74.37
2019-03-12T21:24:20.819Z,77.10
2019-03-12T21:27:00.936Z,71.92
2019-03-12T21:29:44.211Z,73.20
2019-03-12T21:32:16.806Z,73.83
2019-03-12T21:34:48.599Z,68.75
2019-03-12T21:37:20.053Z,82.72
2019-03-12T21:39:55.730Z,78.87
2019-03-12T21:42:25.539Z,84.32
2019-03-12T21:44:57.236Z,98.58
2019-03-12T21:47:28.580Z,86.67
2019-03-12T21:49:59.996Z,77.55
2019-03-12T21:52:31.435Z,93.42
2019-03-12T21:55:02.899Z,95.60
2019-03-12T21:57:34.501Z,97.00
2019-03-12T22:00:09.041Z,90.70
2019-03-12T22:02:41.918Z,100.60
2019-03-12T22:05:13.291Z,96.72
2019-03-12T22:07:44.822Z,100.82
2019-03-12T22:10:16.336Z,89.65
2019-03-12T22:12:47.800Z,92.00
2019-03-12T22:15:19.184Z,85.72
2019-03-12T22:17:50.573Z,86.25
2019-03-12T22:20:22.043Z,90.55
2019-03-12T22:22:57.958Z,96.70
2019-03-12T22:25:29.328Z,94.00
2019-03-12T22:28:00.716Z,84.22
2019-03-12T22:30:32.066Z,92.85
2019-03-12T22:33:03.525Z,84.67
2019-03-12T22:35:35.030Z,82.02
2019-03-12T22:38:06.594Z,81.08
2019-03-12T22:40:37.956Z,86.05
2019-03-12T22:43:09.439Z,83.80
2019-03-12T22:45:41.383Z,77.82
2019-03-12T22:48:12.777Z,70.28
2019-03-12T22:50:44.501Z,50.92
2019-03-12T22:53:15.947Z,44.05
2019-03-12T22:55:47.305Z,35.25
2019-03-12T22:58:18.711Z,35.30
2019-03-12T23:01:08.045Z,38.20
2019-03-12T23:03:57.422Z,32.95
2019-03-12T23:06:46.541Z,33.53
2019-03-12T23:09:35.686Z,33.92
2019-03-12T23:12:08.620Z,34.25
2019-03-12T23:14:41.068Z,33.45
2019-03-12T23:17:14.055Z,35.05
2019-03-12T23:19:47.153Z,37.45
2019-03-12T23:22:18.516Z,29.90
2019-03-12T23:24:49.930Z,22.90
2019-03-12T23:27:21.407Z,24.87
2019-03-12T23:29:52.791Z,27.82
2019-03-12T23:32:24.612Z,20.08
2019-03-12T23:34:56.029Z,20.72
2019-03-12T23:37:27.507Z,22.77
2019-03-12T23:39:58.962Z,21.62
2019-03-12T23:42:30.407Z,23.85
2019-03-12T23:45:01.859Z,24.52
2019-03-12T23:47:33.356Z,28.23
2019-03-12T23:50:07.026Z,35.75
2019-03-12T23:52:38.395Z,34.65
2019-03-12T23:55:11.476Z,29.37
2019-03-12T23:57:42.865Z,27.05
